NV00 weather

Valley View Airport
Pahrump, Nevada, United States

Public forecast

Using degrees Fahrenheit for public forecast. Weather courtesy of forecast.io.

METAR (pilot weather report)

Closest report is Desert Rock Airport, 21.9 nm (40.6 km) N. Retrieved 2019/03/26 15:56 UTC (36 minutes ago):

KDRA 261556Z AUTO 00000KT 10SM CLR 13/M03 A3003 RMK AO2 SLP143 T01331028

TAF (pilot weather forecast)

Forecast is more than 12 hours old.

Closest forecast is Desert Rock Airport, 21.9 nm (40.6 km) N. Retrieved 2011/12/07 06:36 UTC (7 years ago):

TAF KDRA 070532Z 0706/0806 VRB04KT P6SM SKC